Bremen — C6JC3 — position and weather

sailwx.info

Track history (hours):
 
Tides and Currents Weather Stations Pressure Air Temp Water Temp Dewpoint Dewpoint Depression Visibility Wind Speed Wind Dir Waves Ship Positions

Bremen

Operator: Hapag-Lloyd Container Line

Last reported at 2014-Oct-30 23:33 UTC. Time now 2014-Oct-31 10:23 UTC.
Position N 35°25' W 006°56'.

Length 111.5 m; beam 17 m; draft 4.8 m.

Type: Ship. MMSI: 308429000.

Date/timePositionNaut miles runAvg speedWind from/ knotsBaromVisibWave heightAir tempDewpointWater temp
2014-Oct-30 23:33N 35°25' W 006°56'1413.9
2014-Oct-30 22:34N 35°37' W 006°50'1413.7
2014-Oct-30 21:33N 35°50' W 006°44'55 2.6
2014-Oct-30 00:29N 35°58' W 005°37'1111.5
2014-Oct-29 23:33N 36°02' W 005°24'1010.4
2014-Oct-29 22:33N 36°05' W 005°12'54 4.6
2014-Oct-29 11:00N 36°42' W 004°24'   230 / 41018.010.8 22.016.719.5
2014-Oct-27 05:30N 37°05' E 003°34'1213.0
2014-Oct-27 04:33N 37°08' E 003°49'1312.9
2014-Oct-27 03:31N 37°09' E 004°05'2613.2
2014-Oct-27 01:33N 37°11' E 004°38'8013.0
2014-Oct-26 19:26N 37°15' E 006°18'333 6.4
2014-Oct-24 15:34N 38°18' E 013°11'9313.1
2014-Oct-24 08:29N 38°19' E 015°09'385 7.9
2014-Oct-22 07:25N 37°52' E 023°18'1214.4
2014-Oct-22 06:34N 37°50' E 023°33'  
Track history (hours):
 
Tides and Currents Weather Stations Pressure Air Temp Water Temp Dewpoint Dewpoint Depression Visibility Wind Speed Wind Dir Waves Ship Positions

Bremen

Operator: Hapag-Lloyd Container Line

Last reported at 2014-Oct-30 23:33 UTC. Time now 2014-Oct-31 10:23 UTC.
Position N 35°25' W 006°56'.

Length 111.5 m; beam 17 m; draft 4.8 m.

Type: Ship. MMSI: 308429000.

Date/timePositionNaut miles runAvg speedWind from/ knotsBaromVisibWave heightAir tempDewpointWater temp
2014-Oct-30 23:33N 35°25' W 006°56'1413.9
2014-Oct-30 22:34N 35°37' W 006°50'1413.7
2014-Oct-30 21:33N 35°50' W 006°44'55 2.6
2014-Oct-30 00:29N 35°58' W 005°37'1111.5
2014-Oct-29 23:33N 36°02' W 005°24'1010.4
2014-Oct-29 22:33N 36°05' W 005°12'54 4.6
2014-Oct-29 11:00N 36°42' W 004°24'   230 / 41018.010.8 22.016.719.5
2014-Oct-27 05:30N 37°05' E 003°34'1213.0
2014-Oct-27 04:33N 37°08' E 003°49'1312.9
2014-Oct-27 03:31N 37°09' E 004°05'2613.2
2014-Oct-27 01:33N 37°11' E 004°38'8013.0
2014-Oct-26 19:26N 37°15' E 006°18'333 6.4
2014-Oct-24 15:34N 38°18' E 013°11'9313.1
2014-Oct-24 08:29N 38°19' E 015°09'385 7.9
2014-Oct-22 07:25N 37°52' E 023°18'1214.4
2014-Oct-22 06:34N 37°50' E 023°33'  

Dump ship's entire track history